createdAt,value
2023-05-17T00:00:39.596Z,1.65
2023-05-17T00:03:08.261Z,1.77
2023-05-17T00:05:35.494Z,1.70
2023-05-17T00:08:02.694Z,1.80
2023-05-17T00:10:29.913Z,1.80
2023-05-17T00:12:57.116Z,1.80
2023-05-17T00:15:24.438Z,1.70
2023-05-17T00:17:51.711Z,1.73
2023-05-17T00:20:20.373Z,2.10
2023-05-17T00:22:47.607Z,1.60
2023-05-17T00:25:14.812Z,1.50
2023-05-17T00:27:41.969Z,1.20
2023-05-17T00:30:09.613Z,1.50
2023-05-17T00:32:37.461Z,2.00
2023-05-17T00:35:05.515Z,1.95
2023-05-17T00:37:34.143Z,1.98
2023-05-17T00:40:01.369Z,2.00
2023-05-17T00:42:28.576Z,1.73
2023-05-17T00:44:55.843Z,2.00
2023-05-17T00:47:23.207Z,1.80
2023-05-17T00:49:51.900Z,1.80
2023-05-17T00:52:19.240Z,1.92
2023-05-17T00:54:48.242Z,1.80
2023-05-17T00:57:16.244Z,2.10
2023-05-17T00:59:44.842Z,2.83
2023-05-17T01:02:12.512Z,1.67
2023-05-17T01:04:41.854Z,1.95
2023-05-17T01:07:09.988Z,2.38
2023-05-17T01:09:38.531Z,2.13
2023-05-17T01:12:15.410Z,2.50
2023-05-17T01:15:03.825Z,2.25
2023-05-17T01:17:39.589Z,2.10
2023-05-17T01:20:17.211Z,2.15
2023-05-17T01:22:51.874Z,2.30
2023-05-17T01:25:29.344Z,2.22
2023-05-17T01:28:02.093Z,2.20
2023-05-17T01:30:32.439Z,2.80
2023-05-17T01:33:00.930Z,2.65
2023-05-17T01:35:28.596Z,2.70
2023-05-17T01:37:56.212Z,3.47
2023-05-17T01:40:24.195Z,2.28
2023-05-17T01:42:56.631Z,2.55
2023-05-17T01:45:30.588Z,2.30
2023-05-17T01:48:10.852Z,2.70
2023-05-17T01:50:39.864Z,2.35
2023-05-17T01:53:10.426Z,2.08
2023-05-17T01:55:45.355Z,2.60
2023-05-17T02:00:45.905Z,2.20
2023-05-17T02:03:16.950Z,1.75
2023-05-17T02:05:44.352Z,2.80
2023-05-17T02:08:11.615Z,2.78
2023-05-17T02:10:38.887Z,2.67
2023-05-17T02:13:06.221Z,2.47
2023-05-17T02:15:33.518Z,2.80
2023-05-17T02:18:02.165Z,3.20
2023-05-17T02:20:29.398Z,2.42
2023-05-17T02:22:56.721Z,3.47
2023-05-17T02:25:24.015Z,2.00
2023-05-17T02:27:51.231Z,2.70
2023-05-17T02:30:18.582Z,2.92
2023-05-17T02:32:45.994Z,2.50
2023-05-17T02:35:15.775Z,2.47
2023-05-17T02:37:43.560Z,2.03
2023-05-17T02:40:13.686Z,3.63
2023-05-17T02:42:40.992Z,2.30
2023-05-17T02:45:08.564Z,4.40
2023-05-17T02:47:35.906Z,3.22
2023-05-17T02:50:04.149Z,2.22
2023-05-17T02:52:33.306Z,2.67
2023-05-17T02:55:00.747Z,2.10
2023-05-17T02:57:28.052Z,2.30
2023-05-17T02:59:55.442Z,2.63
2023-05-17T03:02:22.745Z,2.72
2023-05-17T03:04:50.121Z,1.80
2023-05-17T03:07:17.888Z,2.55
2023-05-17T03:09:46.540Z,2.47
2023-05-17T03:12:13.914Z,2.72
2023-05-17T03:14:41.126Z,2.10
2023-05-17T03:17:09.928Z,2.35
2023-05-17T03:19:37.274Z,2.40
2023-05-17T03:22:04.595Z,2.50
2023-05-17T03:24:33.668Z,2.33
2023-05-17T03:27:02.862Z,2.90
2023-05-17T03:29:30.283Z,2.47
2023-05-17T03:31:57.781Z,2.92
2023-05-17T03:34:25.445Z,2.83
2023-05-17T03:36:52.799Z,2.78
2023-05-17T03:39:20.241Z,2.45
2023-05-17T03:41:47.498Z,2.88
2023-05-17T03:44:16.999Z,2.85
2023-05-17T03:46:44.717Z,2.53
2023-05-17T03:49:12.026Z,3.13
2023-05-17T03:51:40.156Z,2.63
2023-05-17T03:54:07.439Z,2.58
2023-05-17T03:56:34.728Z,4.28
2023-05-17T03:59:02.110Z,2.42
2023-05-17T04:01:30.807Z,2.30
2023-05-17T04:03:58.473Z,2.75
2023-05-17T04:06:26.032Z,2.67
2023-05-17T04:08:53.899Z,2.75
2023-05-17T04:11:21.743Z,2.80
2023-05-17T04:13:49.021Z,2.78
2023-05-17T04:16:16.305Z,3.15
2023-05-17T04:18:45.472Z,2.90
2023-05-17T04:21:13.193Z,3.83
2023-05-17T04:23:40.609Z,3.70
2023-05-17T04:26:09.193Z,2.78
2023-05-17T04:28:39.364Z,2.78
2023-05-17T04:31:07.622Z,2.60
2023-05-17T04:33:34.967Z,2.72
2023-05-17T04:36:03.909Z,2.35
2023-05-17T04:38:32.466Z,2.72
2023-05-17T04:41:03.059Z,2.40
2023-05-17T04:43:31.047Z,2.63
2023-05-17T04:45:58.601Z,2.35
2023-05-17T04:48:26.586Z,2.85
2023-05-17T04:50:54.127Z,2.20
2023-05-17T04:53:22.738Z,2.78
2023-05-17T04:55:50.728Z,2.55
2023-05-17T04:58:18.384Z,3.08
2023-05-17T05:00:50.011Z,4.72
2023-05-17T05:03:18.063Z,2.78
2023-05-17T05:05:46.469Z,2.92
2023-05-17T05:08:15.558Z,3.13
2023-05-17T05:10:46.030Z,2.88
2023-05-17T05:13:15.124Z,2.28
2023-05-17T05:15:42.791Z,2.20
2023-05-17T05:18:10.040Z,2.97
2023-05-17T05:20:37.410Z,2.80
2023-05-17T05:23:06.443Z,2.45
2023-05-17T05:25:35.089Z,2.60
2023-05-17T05:28:04.097Z,2.58
2023-05-17T05:30:32.119Z,2.70
2023-05-17T05:32:59.676Z,2.95
2023-05-17T05:35:27.056Z,3.10
2023-05-17T05:37:54.621Z,3.35
2023-05-17T05:40:22.367Z,2.58
2023-05-17T05:42:50.750Z,2.90
2023-05-17T05:45:19.512Z,3.42
2023-05-17T05:47:48.842Z,3.00
2023-05-17T05:50:16.143Z,3.45
2023-05-17T05:52:45.047Z,3.45
2023-05-17T05:55:12.886Z,3.42
2023-05-17T05:57:40.510Z,3.60
2023-05-17T06:00:09.022Z,3.45
2023-05-17T06:02:42.627Z,3.30
2023-05-17T06:05:09.959Z,3.17
2023-05-17T06:07:37.170Z,3.30
2023-05-17T06:10:04.962Z,3.88
2023-05-17T06:12:32.159Z,3.13
2023-05-17T06:14:59.372Z,3.55
2023-05-17T06:17:26.720Z,3.67
2023-05-17T06:19:55.451Z,3.38
2023-05-17T06:22:22.843Z,3.58
2023-05-17T06:24:50.094Z,3.13
2023-05-17T06:27:17.302Z,4.10
2023-05-17T06:29:44.480Z,3.58
2023-05-17T06:32:11.687Z,3.47
2023-05-17T06:34:38.891Z,4.20
2023-05-17T06:37:07.479Z,10.68
2023-05-17T06:39:34.763Z,4.10
2023-05-17T06:42:02.021Z,5.10
2023-05-17T06:44:34.558Z,4.10
2023-05-17T06:47:01.804Z,4.22
2023-05-17T06:49:28.963Z,3.42
2023-05-17T06:51:56.176Z,3.63
2023-05-17T06:54:24.807Z,3.92
2023-05-17T06:56:51.971Z,3.95
2023-05-17T06:59:21.931Z,3.45
2023-05-17T07:01:51.643Z,4.05
2023-05-17T07:04:19.016Z,3.35
2023-05-17T07:06:46.479Z,3.10
2023-05-17T07:09:13.747Z,3.92
2023-05-17T07:11:42.348Z,3.60
2023-05-17T07:14:09.758Z,3.67
2023-05-17T07:16:37.004Z,3.70
2023-05-17T07:19:04.364Z,2.95
2023-05-17T07:21:32.154Z,3.25
2023-05-17T07:23:59.662Z,3.45
2023-05-17T07:26:26.903Z,3.50
2023-05-17T07:28:55.533Z,3.60
2023-05-17T07:31:22.781Z,3.60
2023-05-17T07:33:50.066Z,3.42
2023-05-17T07:36:17.432Z,3.28
2023-05-17T07:38:44.706Z,3.30
2023-05-17T07:41:11.981Z,2.95
2023-05-17T07:43:39.389Z,3.05
2023-05-17T07:46:08.011Z,3.45
2023-05-17T07:48:35.349Z,3.42
2023-05-17T07:51:02.875Z,3.70
2023-05-17T07:53:30.129Z,3.50
2023-05-17T07:55:57.399Z,3.25
2023-05-17T07:58:24.716Z,4.38
2023-05-17T08:00:51.939Z,3.72
2023-05-17T08:03:20.479Z,5.20
2023-05-17T08:05:47.853Z,4.20
2023-05-17T08:08:17.794Z,4.10
2023-05-17T08:10:45.036Z,4.00
2023-05-17T08:13:12.257Z,4.80
2023-05-17T08:15:39.519Z,4.15
2023-05-17T08:18:06.855Z,3.80
2023-05-17T08:20:35.659Z,3.45
2023-05-17T08:23:02.876Z,3.50
2023-05-17T08:25:30.444Z,3.60
2023-05-17T08:27:57.843Z,4.18
2023-05-17T08:32:55.455Z,3.53
2023-05-17T08:35:22.744Z,3.75
2023-05-17T08:37:51.499Z,4.47
2023-05-17T08:40:21.208Z,2.85
2023-05-17T08:42:48.935Z,3.15
2023-05-17T08:45:16.453Z,2.78
2023-05-17T08:47:45.022Z,2.70
2023-05-17T08:50:12.972Z,3.50
2023-05-17T08:52:43.311Z,2.78
2023-05-17T08:55:11.936Z,2.72
2023-05-17T08:57:39.429Z,3.10
2023-05-17T09:00:08.644Z,2.75
2023-05-17T09:02:36.398Z,3.45
2023-05-17T09:05:05.059Z,2.72
2023-05-17T09:07:32.467Z,2.60
2023-05-17T09:09:59.691Z,3.00
2023-05-17T09:12:28.337Z,2.70
2023-05-17T09:15:12.745Z,3.10
2023-05-17T09:17:41.181Z,2.90
2023-05-17T09:20:09.023Z,2.25
2023-05-17T09:22:36.653Z,2.67
2023-05-17T09:25:04.538Z,3.53
2023-05-17T09:27:33.178Z,2.60
2023-05-17T09:30:01.026Z,2.80
2023-05-17T09:32:28.291Z,2.75
2023-05-17T09:34:59.364Z,3.13
2023-05-17T09:37:26.625Z,3.45
2023-05-17T09:39:55.087Z,3.25
2023-05-17T09:42:26.335Z,2.53
2023-05-17T09:44:56.447Z,3.17
2023-05-17T09:47:25.064Z,3.00
2023-05-17T09:49:52.598Z,3.13
2023-05-17T09:52:21.037Z,2.65
2023-05-17T09:54:56.400Z,3.03
2023-05-17T09:57:26.267Z,3.28
2023-05-17T09:59:57.467Z,2.45
2023-05-17T10:02:28.454Z,2.88
2023-05-17T10:04:57.237Z,2.78
2023-05-17T10:07:26.163Z,2.78
2023-05-17T10:09:54.566Z,2.50
2023-05-17T10:12:23.790Z,2.55
2023-05-17T10:14:53.435Z,2.60
2023-05-17T10:17:22.075Z,2.50
2023-05-17T10:19:49.639Z,2.50
2023-05-17T10:22:23.368Z,2.78
2023-05-17T10:24:51.638Z,2.50
2023-05-17T10:27:20.254Z,2.35
2023-05-17T10:29:50.620Z,2.25
2023-05-17T10:32:21.371Z,3.22
2023-05-17T10:34:58.079Z,3.08
2023-05-17T10:37:34.456Z,2.60
2023-05-17T10:40:04.638Z,2.50
2023-05-17T10:42:32.505Z,2.47
2023-05-17T10:45:00.898Z,3.13
2023-05-17T10:47:32.389Z,2.60
2023-05-17T10:50:02.412Z,2.67
2023-05-17T10:52:30.507Z,3.10
2023-05-17T10:54:59.766Z,2.85
2023-05-17T10:57:49.140Z,2.75
2023-05-17T11:00:20.343Z,2.47
2023-05-17T11:02:47.597Z,2.50
2023-05-17T11:05:25.934Z,2.92
2023-05-17T11:08:12.756Z,2.85
2023-05-17T11:11:09.605Z,2.92
2023-05-17T11:13:44.998Z,2.50
2023-05-17T11:16:17.362Z,2.53
2023-05-17T11:18:49.719Z,3.40
2023-05-17T11:21:19.535Z,2.83
2023-05-17T11:23:47.826Z,2.40
2023-05-17T11:26:17.678Z,2.50
2023-05-17T11:28:44.958Z,3.05
2023-05-17T11:31:12.304Z,2.28
2023-05-17T11:33:43.032Z,2.60
2023-05-17T11:36:17.817Z,2.77
2023-05-17T11:38:50.072Z,2.10
2023-05-17T11:41:26.829Z,2.40
2023-05-17T11:43:55.051Z,2.38
2023-05-17T11:46:23.502Z,2.50
2023-05-17T11:48:51.651Z,2.30
2023-05-17T11:51:21.334Z,2.47
2023-05-17T11:53:54.554Z,2.25
2023-05-17T11:56:29.220Z,2.47
2023-05-17T11:59:03.432Z,2.13
2023-05-17T12:01:42.621Z,2.28
2023-05-17T12:04:09.842Z,2.50
2023-05-17T12:06:37.575Z,2.53
2023-05-17T12:09:07.697Z,2.22
2023-05-17T12:11:34.999Z,2.63
2023-05-17T12:14:02.340Z,2.70
2023-05-17T12:16:29.902Z,2.25
2023-05-17T12:18:57.429Z,2.40
2023-05-17T12:21:24.985Z,2.00
2023-05-17T12:23:52.399Z,2.47
2023-05-17T12:26:22.218Z,2.53
2023-05-17T12:28:54.019Z,2.53
2023-05-17T12:31:26.839Z,2.38
2023-05-17T12:33:54.560Z,2.70
2023-05-17T12:36:23.039Z,2.53
2023-05-17T12:38:51.327Z,2.10
2023-05-17T12:41:20.891Z,2.10
2023-05-17T12:43:50.546Z,2.85
2023-05-17T12:46:22.563Z,2.22
2023-05-17T12:48:51.708Z,2.60
2023-05-17T12:51:20.824Z,2.53
2023-05-17T12:53:50.793Z,2.10
2023-05-17T12:56:19.997Z,2.55
2023-05-17T12:59:07.152Z,2.38
2023-05-17T13:01:35.278Z,2.40
2023-05-17T13:04:03.489Z,2.38
2023-05-17T13:06:44.031Z,2.50
2023-05-17T13:09:11.577Z,2.25
2023-05-17T13:11:38.800Z,2.33
2023-05-17T13:14:07.438Z,2.15
2023-05-17T13:16:37.739Z,2.15
2023-05-17T13:19:12.398Z,1.80
2023-05-17T13:21:40.189Z,2.78
2023-05-17T13:24:09.509Z,2.53
2023-05-17T13:26:36.705Z,2.63
2023-05-17T13:29:03.952Z,2.40
2023-05-17T13:31:32.554Z,2.67
2023-05-17T13:33:59.953Z,2.35
2023-05-17T13:36:27.282Z,2.28
2023-05-17T13:38:54.485Z,2.95
2023-05-17T13:41:21.693Z,2.72
2023-05-17T13:43:48.962Z,2.38
2023-05-17T13:46:16.173Z,1.65
2023-05-17T13:48:44.835Z,2.10
2023-05-17T13:51:12.150Z,1.90
2023-05-17T13:53:39.351Z,2.38
2023-05-17T13:56:07.295Z,2.33
2023-05-17T13:58:34.523Z,2.10
2023-05-17T14:01:01.765Z,2.53
2023-05-17T14:03:29.079Z,2.83
2023-05-17T14:05:57.804Z,2.03
2023-05-17T14:08:25.036Z,2.67
2023-05-17T14:10:52.267Z,2.63
2023-05-17T14:13:19.514Z,2.63
2023-05-17T14:15:46.706Z,1.77
2023-05-17T14:18:14.312Z,2.38
2023-05-17T14:20:41.614Z,2.60
2023-05-17T14:23:10.289Z,2.95
2023-05-17T14:25:37.509Z,2.40
2023-05-17T14:28:04.769Z,2.50
2023-05-17T14:30:33.335Z,2.00
2023-05-17T14:33:00.645Z,2.53
2023-05-17T14:35:28.061Z,2.88
2023-05-17T14:37:55.278Z,2.38
2023-05-17T14:40:23.851Z,2.78
2023-05-17T14:42:51.181Z,2.63
2023-05-17T14:45:18.495Z,2.40
2023-05-17T14:47:45.857Z,2.08
2023-05-17T14:50:13.072Z,2.40
2023-05-17T14:52:40.257Z,2.58
2023-05-17T14:55:08.202Z,2.72
2023-05-17T14:57:36.802Z,2.63
2023-05-17T15:00:05.447Z,2.40
2023-05-17T15:02:33.090Z,2.22
2023-05-17T15:05:00.628Z,2.05
2023-05-17T15:07:27.956Z,2.63
2023-05-17T15:09:55.247Z,2.28
2023-05-17T15:12:22.482Z,2.63
2023-05-17T15:14:51.114Z,2.78
2023-05-17T15:17:18.359Z,2.40
2023-05-17T15:19:45.716Z,2.50
2023-05-17T15:22:13.104Z,2.53
2023-05-17T15:24:40.371Z,3.25
2023-05-17T15:27:07.639Z,2.50
2023-05-17T15:29:34.851Z,2.03
2023-05-17T15:32:03.767Z,2.40
2023-05-17T15:34:31.047Z,1.90
2023-05-17T15:36:58.245Z,2.15
2023-05-17T15:39:25.430Z,2.35
2023-05-17T15:41:52.646Z,1.98
2023-05-17T15:44:19.874Z,2.55
2023-05-17T15:46:47.064Z,2.20
2023-05-17T15:49:15.756Z,2.70
2023-05-17T15:51:43.025Z,2.90
2023-05-17T15:54:10.247Z,2.80
2023-05-17T15:56:37.521Z,2.67
2023-05-17T15:59:04.768Z,2.45
2023-05-17T16:01:31.995Z,2.35
2023-05-17T16:03:59.361Z,2.20
2023-05-17T16:06:28.003Z,2.00
2023-05-17T16:08:55.287Z,2.60
2023-05-17T16:11:22.504Z,2.47
2023-05-17T16:13:49.712Z,2.03
2023-05-17T16:16:16.939Z,2.50
2023-05-17T16:18:44.192Z,2.33
2023-05-17T16:21:11.489Z,2.38
2023-05-17T16:23:40.122Z,2.83
2023-05-17T16:26:07.341Z,2.63
2023-05-17T16:28:34.552Z,2.03
2023-05-17T16:31:04.055Z,2.10
2023-05-17T16:33:32.880Z,2.50
2023-05-17T16:36:00.086Z,2.25
2023-05-17T16:38:27.402Z,2.03
2023-05-17T16:40:56.023Z,2.20
2023-05-17T16:43:23.248Z,2.10
2023-05-17T16:45:50.522Z,2.08
2023-05-17T16:48:17.843Z,2.85
2023-05-17T16:50:45.102Z,1.70
2023-05-17T16:53:12.384Z,2.20
2023-05-17T16:55:39.598Z,2.30
2023-05-17T16:58:08.360Z,2.38
2023-05-17T17:00:35.701Z,2.35
2023-05-17T17:03:03.097Z,2.10
2023-05-17T17:05:30.566Z,2.08
2023-05-17T17:07:57.796Z,2.10
2023-05-17T17:10:25.131Z,2.17
2023-05-17T17:12:52.322Z,2.05
2023-05-17T17:15:21.073Z,3.03
2023-05-17T17:17:48.327Z,2.40
2023-05-17T17:20:15.561Z,3.35
2023-05-17T17:22:42.789Z,2.25
2023-05-17T17:25:10.211Z,2.40
2023-05-17T17:27:37.434Z,3.03
2023-05-17T17:30:05.611Z,3.40
2023-05-17T17:32:34.317Z,1.85
2023-05-17T17:35:01.683Z,2.03
2023-05-17T17:37:28.892Z,2.40
2023-05-17T17:39:56.083Z,1.85
2023-05-17T17:42:23.313Z,1.92
2023-05-17T17:44:50.524Z,1.98
2023-05-17T17:47:17.780Z,2.22
2023-05-17T17:49:46.383Z,2.25
2023-05-17T17:52:13.597Z,2.25
2023-05-17T17:54:41.704Z,2.03
2023-05-17T17:57:09.179Z,1.75
2023-05-17T17:59:36.406Z,1.92
2023-05-17T18:02:03.703Z,1.65
2023-05-17T18:04:30.936Z,2.13
2023-05-17T18:06:59.538Z,2.33
2023-05-17T18:09:26.776Z,1.60
2023-05-17T18:11:54.000Z,1.80
2023-05-17T18:14:21.190Z,2.03
2023-05-17T18:16:48.423Z,2.15
2023-05-17T18:19:15.825Z,2.85
2023-05-17T18:21:43.138Z,2.35
2023-05-17T18:24:11.766Z,2.08
2023-05-17T18:26:38.959Z,2.15
2023-05-17T18:29:06.259Z,1.58
2023-05-17T18:31:33.489Z,1.88
2023-05-17T18:34:00.706Z,2.15
2023-05-17T18:36:27.943Z,1.95
2023-05-17T18:38:55.122Z,1.70
2023-05-17T18:41:23.836Z,1.77
2023-05-17T18:43:51.073Z,1.63
2023-05-17T18:46:18.688Z,1.85
2023-05-17T18:48:46.065Z,1.65
2023-05-17T18:51:13.424Z,1.92
2023-05-17T18:53:40.591Z,2.13
2023-05-17T18:56:07.982Z,1.77
2023-05-17T18:58:36.684Z,2.00
2023-05-17T19:01:04.210Z,1.92
2023-05-17T19:03:31.598Z,1.80
2023-05-17T19:05:58.836Z,1.95
2023-05-17T19:08:26.040Z,1.80
2023-05-17T19:10:53.359Z,2.00
2023-05-17T19:13:20.578Z,1.90
2023-05-17T19:15:49.254Z,2.63
2023-05-17T19:18:16.513Z,2.17
2023-05-17T19:20:43.790Z,2.75
2023-05-17T19:23:10.992Z,1.90
2023-05-17T19:25:38.295Z,2.20
2023-05-17T19:28:05.481Z,2.00
2023-05-17T19:30:33.163Z,2.28
2023-05-17T19:33:02.052Z,2.42
2023-05-17T19:35:29.384Z,2.03
2023-05-17T19:37:56.715Z,1.70
2023-05-17T19:40:24.398Z,1.80
2023-05-17T19:42:51.753Z,1.92
2023-05-17T19:45:19.014Z,2.22
2023-05-17T19:47:46.228Z,2.60
2023-05-17T19:50:14.823Z,2.05
2023-05-17T19:52:42.123Z,2.10
2023-05-17T19:55:09.448Z,2.25
2023-05-17T19:57:36.714Z,1.98
2023-05-17T20:00:04.897Z,1.88
2023-05-17T20:02:32.125Z,2.03
2023-05-17T20:04:59.391Z,1.88
2023-05-17T20:07:28.100Z,2.47
2023-05-17T20:09:55.400Z,1.75
2023-05-17T20:12:22.566Z,1.92
2023-05-17T20:14:49.770Z,2.25
2023-05-17T20:17:17.118Z,2.15
2023-05-17T20:19:44.335Z,2.25
2023-05-17T20:22:11.898Z,2.25
2023-05-17T20:24:40.514Z,1.80
2023-05-17T20:27:07.725Z,2.42
2023-05-17T20:29:34.979Z,2.22
2023-05-17T20:32:02.405Z,2.10
2023-05-17T20:34:29.744Z,1.98
2023-05-17T20:36:57.385Z,2.50
2023-05-17T20:39:25.260Z,1.73
2023-05-17T20:41:54.054Z,2.53
2023-05-17T20:44:21.306Z,2.00
2023-05-17T20:46:48.513Z,2.38
2023-05-17T20:49:15.777Z,2.60
2023-05-17T20:51:42.987Z,2.45
2023-05-17T20:54:10.223Z,2.15
2023-05-17T20:56:37.489Z,2.88
2023-05-17T20:59:06.198Z,3.10
2023-05-17T21:01:33.733Z,2.10
2023-05-17T21:04:01.412Z,2.28
2023-05-17T21:06:30.950Z,2.20
2023-05-17T21:08:59.663Z,2.60
2023-05-17T21:11:26.882Z,2.25
2023-05-17T21:13:54.101Z,2.60
2023-05-17T21:16:22.722Z,3.45
2023-05-17T21:18:50.269Z,3.90
2023-05-17T21:21:18.052Z,3.58
2023-05-17T21:23:45.281Z,2.95
2023-05-17T21:26:13.150Z,2.90
2023-05-17T21:28:40.405Z,2.97
2023-05-17T21:31:07.966Z,2.72
2023-05-17T21:33:36.544Z,3.05
2023-05-17T21:36:04.058Z,3.47
2023-05-17T21:38:31.290Z,3.30
2023-05-17T21:40:58.546Z,3.05
2023-05-17T21:43:25.776Z,3.00
2023-05-17T21:45:52.983Z,3.40
2023-05-17T21:48:20.230Z,3.30
2023-05-17T21:50:48.835Z,2.70
2023-05-17T21:53:16.044Z,2.58
2023-05-17T21:58:13.379Z,2.97
2023-05-17T22:00:40.580Z,3.30
2023-05-17T22:03:07.955Z,2.45
2023-05-17T22:05:35.217Z,2.53
2023-05-17T22:08:04.273Z,3.40
2023-05-17T22:10:31.769Z,3.78
2023-05-17T22:13:00.451Z,3.35
2023-05-17T22:15:27.863Z,4.43
2023-05-17T22:17:55.131Z,3.40
2023-05-17T22:20:22.456Z,3.30
2023-05-17T22:22:49.754Z,4.13
2023-05-17T22:25:18.376Z,3.13
2023-05-17T22:27:45.572Z,3.58
2023-05-17T22:30:13.262Z,2.97
2023-05-17T22:32:40.540Z,3.08
2023-05-17T22:35:08.348Z,2.58
2023-05-17T22:37:35.811Z,2.85
2023-05-17T22:40:03.335Z,2.92
2023-05-17T22:42:32.024Z,3.00
2023-05-17T22:44:59.319Z,3.08
2023-05-17T22:47:26.656Z,3.25
2023-05-17T22:49:53.927Z,2.90
2023-05-17T22:52:21.136Z,2.47
2023-05-17T22:54:48.321Z,2.92
2023-05-17T22:57:15.556Z,2.50
2023-05-17T22:59:44.232Z,3.20
2023-05-17T23:02:12.481Z,2.33
2023-05-17T23:04:39.794Z,2.50
2023-05-17T23:07:07.082Z,2.40
2023-05-17T23:09:34.295Z,2.92
2023-05-17T23:12:01.480Z,2.13
2023-05-17T23:14:28.659Z,2.50
2023-05-17T23:16:58.401Z,2.58
2023-05-17T23:19:25.646Z,2.63
2023-05-17T23:21:52.945Z,2.30
2023-05-17T23:24:20.126Z,2.95
2023-05-17T23:26:47.342Z,3.17
2023-05-17T23:29:14.546Z,3.00
2023-05-17T23:31:41.802Z,2.72
2023-05-17T23:34:10.343Z,2.50
2023-05-17T23:36:37.542Z,2.40
2023-05-17T23:39:04.730Z,2.85
2023-05-17T23:41:32.104Z,2.80
2023-05-17T23:43:59.331Z,2.83
2023-05-17T23:46:26.627Z,2.33
2023-05-17T23:48:53.873Z,2.50
2023-05-17T23:51:22.710Z,3.58
2023-05-17T23:53:50.036Z,2.83
2023-05-17T23:56:17.783Z,3.33
2023-05-17T23:58:45.587Z,3.22
